.
WxDataArchive / Data Records for 2012-12-23
2012-12-22 December 2012 2012-12-24

Data Records for Sunday, 23 December 2012

Time	Temp	Chill	HIndex	Humid	Dewpt	 Wind 	HiWind	WindDir	Rain 	Barom 
-----	----	-----	------	-----	-----	------	------	-------	-----	----- 
00:00	21.6	21.6	21.6	85	17.8	0	0	---	0.00	30.051 
00:05	21.6	21.6	21.6	85	17.8	0	0	---	0.00	30.051 
00:10	21.4	21.4	21.4	85	17.6	0	0	---	0.00	30.051 
00:15	21.4	21.4	21.4	86	17.9	0	0	---	0.00	30.040 
00:20	21.4	21.4	21.4	86	17.9	0	1	248	0.00	30.040 
00:25	21.4	21.4	21.4	86	17.9	0	0	---	0.00	30.040 
00:30	21.4	21.4	21.4	86	17.9	0	0	---	0.00	30.033 
00:35	21.4	21.4	21.4	86	17.9	0	0	---	0.00	30.033 
00:40	21.4	21.4	21.4	85	17.6	0	0	---	0.00	30.033 
00:45	21.3	21.3	21.3	86	17.8	0	0	---	0.00	30.027 
00:50	21.1	21.1	21.1	85	17.3	0	0	---	0.00	30.027 
00:55	21.1	21.1	21.1	85	17.3	0	0	---	0.00	30.027 
01:00	21.0	21.0	21.0	85	17.2	0	0	---	0.00	30.019 
01:05	20.8	20.8	20.8	85	17.0	0	0	---	0.00	30.019 
01:10	20.6	20.6	20.6	85	16.8	0	0	---	0.00	30.019 
01:15	20.5	20.5	20.5	85	16.7	0	0	---	0.00	30.016 
01:20	20.5	20.5	20.5	85	16.7	0	0	---	0.00	30.016 
01:25	20.3	20.3	20.3	85	16.5	0	0	---	0.00	30.016 
01:30	20.2	20.2	20.2	85	16.4	0	0	---	0.00	30.007 
01:35	20.2	20.2	20.2	86	16.7	0	0	---	0.00	30.007 
01:40	20.0	20.0	20.0	86	16.5	0	0	---	0.00	30.007 
01:45	20.0	20.0	20.0	86	16.5	0	0	---	0.00	30.004 
01:50	19.9	19.9	19.9	86	16.4	0	0	---	0.00	30.004 
01:55	19.7	19.7	19.7	86	16.2	0	0	---	0.00	30.004 
02:00	19.5	19.5	19.5	86	16.0	0	0	---	0.00	30.004 
02:05	19.4	19.4	19.4	86	15.9	0	0	---	0.00	30.004 
02:10	19.2	19.2	19.2	86	15.7	0	0	---	0.00	30.004 
02:15	19.1	19.1	19.1	86	15.6	0	0	---	0.00	29.999 
02:20	19.1	19.1	19.1	86	15.6	0	0	---	0.00	29.999 
02:25	18.9	18.9	18.9	86	15.4	0	0	---	0.00	29.999 
02:30	18.8	18.8	18.8	86	15.3	0	0	---	0.00	29.993 
02:35	18.8	18.8	18.8	86	15.3	0	0	---	0.00	29.993 
02:40	18.6	18.6	18.6	86	15.1	0	0	---	0.00	29.993 
02:45	18.6	18.6	18.6	86	15.1	0	0	---	0.00	29.983 
02:50	18.4	18.4	18.4	86	14.9	0	0	---	0.00	29.983 
02:55	18.4	18.4	18.4	87	15.2	0	0	---	0.00	29.983 
03:00	18.3	18.3	18.3	87	15.1	0	0	---	0.00	29.975 
03:05	18.3	18.3	18.3	87	15.1	0	0	---	0.00	29.975 
03:10	18.1	18.1	18.1	87	14.9	0	0	---	0.00	29.975 
03:15	18.0	18.0	18.0	87	14.8	0	0	---	0.00	29.974 
03:20	18.0	18.0	18.0	87	14.8	0	0	---	0.00	29.974 
03:25	17.8	17.8	17.8	87	14.6	0	0	---	0.00	29.974 
03:30	17.8	17.8	17.8	87	14.6	0	0	---	0.00	29.972 
03:35	17.8	17.8	17.8	87	14.6	0	0	---	0.00	29.972 
03:40	17.8	17.8	17.8	87	14.6	0	0	---	0.00	29.972 
03:45	17.7	17.7	17.7	87	14.5	0	0	---	0.00	29.962 
03:50	17.7	17.7	17.7	87	14.5	0	0	---	0.00	29.962 
03:55	17.5	17.5	17.5	87	14.3	0	0	---	0.00	29.962 
04:00	17.5	17.5	17.5	87	14.3	0	0	---	0.00	29.959 
04:05	17.5	17.5	17.5	88	14.6	0	0	---	0.00	29.959 
04:10	17.7	17.7	17.7	88	14.8	0	0	---	0.00	29.959 
04:15	17.7	17.7	17.7	88	14.8	0	0	---	0.00	29.954 
04:20	17.7	17.7	17.7	88	14.8	0	0	---	0.00	29.954 
04:25	17.7	17.7	17.7	88	14.8	0	0	---	0.00	29.954 
04:30	17.5	17.5	17.5	88	14.6	0	0	---	0.00	29.943 
04:35	17.5	17.5	17.5	88	14.6	0	0	---	0.00	29.943 
04:40	17.5	17.5	17.5	88	14.6	0	0	---	0.00	29.943 
04:45	17.3	17.3	17.3	88	14.4	0	0	---	0.00	29.943 
04:50	17.3	17.3	17.3	88	14.4	0	0	---	0.00	29.943 
04:55	17.3	17.3	17.3	88	14.4	0	0	---	0.00	29.943 
05:00	17.2	17.2	17.2	88	14.3	0	0	---	0.00	29.940 
05:05	17.2	17.2	17.2	88	14.3	0	0	---	0.00	29.940 
05:10	17.2	17.2	17.2	88	14.3	0	0	---	0.00	29.940 
05:15	17.0	17.0	17.0	88	14.1	0	0	---	0.00	29.934 
05:20	17.0	17.0	17.0	88	14.1	0	0	---	0.00	29.934 
05:25	17.0	17.0	17.0	88	14.1	0	0	---	0.00	29.934 
05:30	17.0	17.0	17.0	88	14.1	0	0	---	0.00	29.935 
05:35	16.9	16.9	16.9	88	14.0	0	0	---	0.00	29.935 
05:40	16.9	16.9	16.9	88	14.0	0	0	---	0.00	29.935 
05:45	16.7	16.7	16.7	88	13.8	0	0	---	0.00	29.936 
05:50	16.7	16.7	16.7	88	13.8	0	0	---	0.00	29.936 
05:55	16.7	16.7	16.7	88	13.8	0	0	---	0.00	29.936 
06:00	16.7	16.7	16.7	88	13.8	0	0	---	0.00	29.939 
06:05	16.9	16.9	16.9	88	14.0	0	0	---	0.00	29.939 
06:10	16.7	16.7	16.7	88	13.8	0	0	---	0.00	29.939 
06:15	16.7	16.7	16.7	88	13.8	0	0	---	0.00	29.940 
06:20	16.7	16.7	16.7	88	13.8	0	0	---	0.00	29.940 
06:25	16.5	16.5	16.5	88	13.6	0	0	---	0.00	29.940 
06:30	16.5	16.5	16.5	88	13.6	0	0	---	0.00	29.936 
06:35	16.5	16.5	16.5	88	13.6	0	0	---	0.00	29.936 
06:40	16.5	16.5	16.5	88	13.6	0	0	---	0.00	29.936 
06:45	16.5	16.5	16.5	88	13.6	0	0	---	0.00	29.942 
06:50	16.5	16.5	16.5	88	13.6	0	0	---	0.00	29.942 
06:55	16.5	16.5	16.5	88	13.6	0	0	---	0.00	29.942 
07:00	16.5	16.5	16.5	88	13.6	0	0	---	0.00	29.949 
07:05	16.5	16.5	16.5	88	13.6	0	0	---	0.00	29.949 
07:10	16.5	16.5	16.5	88	13.6	0	0	---	0.00	29.949 
07:15	16.7	16.7	16.7	88	13.8	0	0	---	0.00	29.952 
07:20	16.7	16.7	16.7	88	13.8	0	0	---	0.00	29.952 
07:25	16.7	16.7	16.7	88	13.8	0	0	---	0.00	29.952 
07:30	16.7	16.7	16.7	88	13.8	0	0	---	0.00	29.952 
07:35	16.7	16.7	16.7	88	13.8	0	0	---	0.00	29.952 
07:40	16.5	16.5	16.5	88	13.6	0	0	---	0.00	29.952 
07:45	16.5	16.5	16.5	88	13.6	0	0	---	0.00	29.955 
07:50	16.5	16.5	16.5	88	13.6	0	0	---	0.00	29.955 
07:55	16.5	16.5	16.5	88	13.6	0	0	---	0.00	29.955 
08:00	16.5	16.5	16.5	88	13.6	0	0	---	0.00	29.959 
08:05	16.5	16.5	16.5	88	13.6	0	0	---	0.00	29.959 
08:10	16.5	16.5	16.5	88	13.6	0	0	---	0.00	29.959 
08:15	16.5	16.5	16.5	88	13.6	0	0	---	0.00	29.958 
08:20	16.5	16.5	16.5	88	13.6	0	0	---	0.00	29.958 
08:25	16.5	16.5	16.5	89	13.8	0	0	---	0.00	29.958 
08:30	16.7	16.7	16.7	89	14.0	0	0	---	0.00	29.963 
08:35	16.9	16.9	16.9	89	14.2	0	0	---	0.00	29.963 
08:40	17.0	17.0	17.0	89	14.3	0	0	---	0.00	29.963 
08:45	17.2	17.2	17.2	89	14.5	0	0	---	0.00	29.964 
08:50	17.5	17.5	17.5	89	14.8	0	0	---	0.00	29.964 
08:55	18.0	18.0	18.0	89	15.3	0	0	---	0.00	29.964 
09:00	18.4	18.4	18.4	90	16.0	0	0	---	0.00	29.967 
09:05	18.8	18.8	18.8	90	16.4	0	0	---	0.00	29.967 
09:10	19.1	19.1	19.1	90	16.7	0	0	---	0.00	29.967 
09:15	19.9	19.9	19.9	90	17.5	0	0	---	0.00	29.969 
09:20	20.6	20.6	20.6	91	18.4	0	0	---	0.00	29.969 
09:25	21.4	21.4	21.4	91	19.2	0	0	---	0.00	29.969 
09:30	21.9	21.9	21.9	91	19.7	0	0	---	0.00	29.965 
09:35	22.5	22.5	22.5	91	20.3	0	0	---	0.00	29.965 
09:40	23.2	23.2	23.2	91	21.0	0	0	---	0.00	29.965 
09:45	23.6	23.6	23.6	91	21.4	0	0	---	0.00	29.967 
09:50	24.1	24.1	24.1	91	21.9	0	1	248	0.00	29.967 
09:55	24.5	24.5	24.5	90	22.0	0	1	248	0.00	29.967 
10:00	25.0	25.0	25.0	90	22.5	0	1	248	0.00	29.975 
10:05	25.6	25.6	25.6	89	22.8	0	1	248	0.00	29.975 
10:10	26.0	26.0	26.0	88	22.9	0	1	248	0.00	29.975 
10:15	26.4	26.4	26.4	87	23.1	0	1	225	0.00	29.979 
10:20	26.7	26.7	26.7	86	23.1	0	1	248	0.00	29.979 
10:25	27.2	27.2	27.2	85	23.3	0	1	248	0.00	29.979 
10:30	27.6	27.6	27.6	84	23.4	0	2	248	0.00	29.988 
10:35	27.9	27.9	27.9	82	23.1	0	2	248	0.00	29.988 
10:40	28.1	28.1	28.1	81	23.0	0	1	248	0.00	29.988 
10:45	28.5	28.5	28.5	81	23.4	0	1	248	0.00	29.988 
10:50	28.8	28.8	28.8	80	23.4	0	1	248	0.00	29.988 
10:55	29.0	29.0	29.0	79	23.3	0	1	248	0.00	29.988 
11:00	29.4	29.4	29.4	79	23.7	0	1	248	0.00	29.988 
11:05	29.5	29.5	29.5	78	23.5	0	1	248	0.00	29.988 
11:10	30.0	30.0	30.0	77	23.7	0	3	248	0.00	29.988 
11:15	30.4	30.4	30.4	77	24.1	0	1	248	0.00	29.985 
11:20	30.9	30.9	30.9	77	24.6	0	2	248	0.00	29.985 
11:25	31.3	31.3	31.3	77	24.9	0	1	248	0.00	29.985 
11:30	31.6	31.6	31.6	76	24.9	0	1	248	0.00	29.978 
11:35	31.8	31.8	31.8	76	25.1	0	1	248	0.00	29.978 
11:40	32.1	32.1	32.1	76	25.4	0	2	248	0.00	29.978 
11:45	32.5	32.5	32.5	76	25.8	0	2	248	0.00	29.972 
11:50	32.8	32.8	32.8	75	25.8	0	3	248	0.00	29.972 
11:55	33.1	33.1	33.1	75	26.1	1	4	248	0.00	29.972 
12:00	33.2	33.2	33.2	74	25.8	1	3	292	0.00	29.970 
12:05	33.8	33.8	33.8	75	26.7	1	2	292	0.00	29.970 
12:10	34.0	34.0	34.0	74	26.6	1	3	292	0.00	29.970 
12:15	34.3	34.3	34.3	74	26.9	0	3	292	0.00	29.970 
12:20	34.4	34.4	34.4	73	26.7	1	4	315	0.00	29.970 
12:25	34.7	34.7	34.7	73	26.9	0	2	315	0.00	29.970 
12:30	34.6	34.6	34.6	73	26.9	0	2	315	0.00	29.969 
12:35	34.7	34.7	34.7	73	26.9	0	2	315	0.00	29.969 
12:40	34.9	34.9	34.9	73	27.1	1	3	315	0.00	29.969 
12:45	34.9	34.9	34.9	72	26.8	1	6	270	0.00	29.970 
12:50	35.2	35.2	35.2	73	27.4	0	2	338	0.00	29.970 
12:55	35.5	35.5	35.5	73	27.7	0	3	338	0.00	29.970 
13:00	35.6	35.6	35.6	73	27.8	0	3	315	0.00	29.972 
13:05	35.9	35.9	35.9	72	27.8	0	3	315	0.00	29.972 
13:10	36.2	36.2	36.2	72	28.1	0	2	315	0.00	29.972 
13:15	36.3	36.3	36.3	71	27.8	1	4	0	0.00	29.971 
13:20	36.3	36.3	36.3	70	27.5	1	3	0	0.00	29.971 
13:25	36.5	36.5	36.5	70	27.7	1	4	292	0.00	29.971 
13:30	36.6	36.6	36.6	70	27.8	1	4	0	0.00	29.971 
13:35	36.6	36.6	36.6	69	27.4	1	4	270	0.00	29.971 
13:40	36.5	36.5	36.5	69	27.3	1	3	270	0.00	29.971 
13:45	36.5	36.5	36.5	69	27.3	1	3	270	0.00	29.967 
13:50	36.6	36.6	36.6	69	27.4	1	3	270	0.00	29.967 
13:55	36.8	36.8	36.8	69	27.6	1	3	270	0.00	29.967 
14:00	36.9	36.9	36.9	69	27.7	0	2	270	0.00	29.966 
14:05	36.6	36.6	36.6	68	27.1	1	4	270	0.00	29.966 
14:10	36.5	36.5	36.5	69	27.3	1	3	270	0.00	29.966 
14:15	36.3	36.3	36.3	69	27.1	0	2	270	0.00	29.967 
14:20	36.5	36.5	36.5	69	27.3	0	2	270	0.00	29.967 
14:25	36.5	36.5	36.5	69	27.3	0	2	270	0.00	29.967 
14:30	36.3	36.3	36.3	67	26.4	0	2	270	0.00	29.962 
14:35	36.3	36.3	36.3	68	26.8	0	2	270	0.00	29.962 
14:40	36.3	36.3	36.3	68	26.8	0	1	270	0.00	29.962 
14:45	36.5	36.5	36.5	68	27.0	0	1	270	0.00	29.960 
14:50	36.6	36.6	36.6	68	27.1	0	2	270	0.00	29.960 
14:55	36.6	36.6	36.6	67	26.7	0	1	270	0.00	29.960 
15:00	36.6	36.6	36.6	67	26.7	0	1	270	0.00	29.956 
15:05	36.6	36.6	36.6	68	27.1	0	2	270	0.00	29.956 
15:10	36.5	36.5	36.5	67	26.6	0	2	270	0.00	29.956 
15:15	36.5	36.5	36.5	67	26.6	0	1	270	0.00	29.965 
15:20	36.5	36.5	36.5	68	27.0	0	1	270	0.00	29.965 
15:25	36.5	36.5	36.5	67	26.6	0	1	270	0.00	29.965 
15:30	36.5	36.5	36.5	68	27.0	0	1	270	0.00	29.968 
15:35	36.5	36.5	36.5	68	27.0	0	1	270	0.00	29.968 
15:40	36.5	36.5	36.5	67	26.6	0	1	270	0.00	29.968 
15:45	36.5	36.5	36.5	67	26.6	0	1	270	0.00	29.970 
15:50	36.3	36.3	36.3	67	26.4	0	1	270	0.00	29.970 
15:55	36.3	36.3	36.3	67	26.4	0	0	---	0.00	29.970 
16:00	36.3	36.3	36.3	67	26.4	0	0	---	0.00	29.978 
16:05	36.2	36.2	36.2	67	26.3	0	1	270	0.00	29.978 
16:10	36.2	36.2	36.2	67	26.3	0	1	270	0.00	29.978 
16:15	36.0	36.0	36.0	67	26.1	0	1	270	0.00	29.984 
16:20	36.0	36.0	36.0	67	26.1	0	1	270	0.00	29.984 
16:25	35.9	35.9	35.9	67	26.0	0	1	270	0.00	29.984 
16:30	35.8	35.8	35.8	67	25.9	0	1	270	0.00	29.988 
16:35	35.5	35.5	35.5	67	25.6	0	0	---	0.00	29.988 
16:40	35.3	35.3	35.3	67	25.5	0	0	---	0.00	29.988 
16:45	35.2	35.2	35.2	67	25.4	0	0	---	0.00	29.995 
16:50	35.0	35.0	35.0	67	25.2	0	0	---	0.00	29.995 
16:55	34.7	34.7	34.7	68	25.2	0	0	---	0.00	29.995 
17:00	34.6	34.6	34.6	68	25.1	0	0	---	0.00	29.998 
17:05	34.1	34.1	34.1	69	25.0	0	0	---	0.00	29.998 
17:10	34.0	34.0	34.0	69	24.9	0	0	---	0.00	29.998 
17:15	33.7	33.7	33.7	68	24.3	0	0	---	0.00	29.998 
17:20	33.5	33.5	33.5	68	24.1	0	0	---	0.00	29.998 
17:25	33.2	33.2	33.2	68	23.8	0	0	---	0.00	29.998 
17:30	32.9	32.9	32.9	68	23.5	0	0	---	0.00	30.001 
17:35	32.7	32.7	32.7	68	23.3	0	0	---	0.00	30.001 
17:40	32.4	32.4	32.4	69	23.4	0	0	---	0.00	30.001 
17:45	32.1	32.1	32.1	69	23.1	0	0	---	0.00	30.003 
17:50	31.8	31.8	31.8	70	23.2	0	0	---	0.00	30.003 
17:55	31.6	31.6	31.6	70	23.0	0	0	---	0.00	30.003 
18:00	31.3	31.3	31.3	71	23.0	0	0	---	0.00	30.008 
18:05	31.2	31.2	31.2	71	22.9	0	0	---	0.00	30.008 
18:10	30.9	30.9	30.9	72	23.0	0	0	---	0.00	30.008 
18:15	30.7	30.7	30.7	73	23.1	0	0	---	0.00	30.013 
18:20	30.3	30.3	30.3	73	22.7	0	0	---	0.00	30.013 
18:25	30.1	30.1	30.1	74	22.8	0	0	---	0.00	30.013 
18:30	30.0	30.0	30.0	74	22.7	0	0	---	0.00	30.018 
18:35	29.8	29.8	29.8	75	22.9	0	0	---	0.00	30.018 
18:40	29.7	29.7	29.7	75	22.8	0	0	---	0.00	30.018 
18:45	29.5	29.5	29.5	75	22.6	0	0	---	0.00	30.017 
18:50	29.5	29.5	29.5	76	22.9	0	0	---	0.00	30.017 
18:55	29.5	29.5	29.5	76	22.9	0	0	---	0.00	30.017 
19:00	29.4	29.4	29.4	76	22.8	0	0	---	0.00	30.024 
19:05	29.4	29.4	29.4	76	22.8	0	0	---	0.00	30.024 
19:10	29.3	29.3	29.3	76	22.7	0	0	---	0.00	30.024 
19:15	29.1	29.1	29.1	76	22.5	0	0	---	0.00	30.026 
19:20	28.8	28.8	28.8	77	22.5	0	0	---	0.00	30.026 
19:25	28.5	28.5	28.5	77	22.2	0	0	---	0.00	30.026 
19:30	28.4	28.4	28.4	77	22.1	0	0	---	0.00	30.029 
19:35	28.1	28.1	28.1	77	21.8	0	0	---	0.00	30.029 
19:40	27.8	27.8	27.8	77	21.5	0	0	---	0.00	30.029 
19:45	27.6	27.6	27.6	78	21.7	0	0	---	0.00	30.041 
19:50	27.6	27.6	27.6	79	22.0	0	0	---	0.00	30.041 
19:55	27.6	27.6	27.6	80	22.3	0	0	---	0.00	30.041 
20:00	27.6	27.6	27.6	80	22.3	0	0	---	0.00	30.042 
20:05	27.6	27.6	27.6	80	22.3	0	0	---	0.00	30.042 
20:10	27.6	27.6	27.6	80	22.3	0	0	---	0.00	30.042 
20:15	27.8	27.8	27.8	81	22.7	0	1	270	0.00	30.040 
20:20	27.9	27.9	27.9	81	22.8	0	0	---	0.00	30.040 
20:25	27.9	27.9	27.9	81	22.8	0	0	---	0.00	30.040 
20:30	27.9	27.9	27.9	81	22.8	0	0	---	0.00	30.042 
20:35	28.1	28.1	28.1	81	23.0	0	0	---	0.00	30.042 
20:40	28.2	28.2	28.2	81	23.1	0	0	---	0.00	30.042 
20:45	28.2	28.2	28.2	81	23.1	0	0	---	0.00	30.043 
20:50	28.1	28.1	28.1	81	23.0	0	0	---	0.00	30.043 
20:55	27.9	27.9	27.9	80	22.5	0	0	---	0.00	30.043 
21:00	27.8	27.8	27.8	81	22.7	0	0	---	0.00	30.042 
21:05	27.6	27.6	27.6	81	22.5	0	0	---	0.00	30.042 
21:10	27.5	27.5	27.5	81	22.4	0	0	---	0.00	30.042 
21:15	27.5	27.5	27.5	81	22.4	0	0	---	0.00	30.036 
21:20	27.3	27.3	27.3	81	22.3	0	0	---	0.00	30.036 
21:25	27.3	27.3	27.3	82	22.5	0	1	270	0.00	30.036 
21:30	27.2	27.2	27.2	82	22.4	0	0	---	0.00	30.036 
21:35	26.9	26.9	26.9	82	22.2	0	0	---	0.00	30.036 
21:40	26.7	26.7	26.7	82	22.0	0	0	---	0.00	30.036 
21:45	26.6	26.6	26.6	82	21.9	0	0	---	0.00	30.032 
21:50	26.4	26.4	26.4	82	21.7	0	0	---	0.00	30.032 
21:55	26.3	26.3	26.3	83	21.9	0	0	---	0.00	30.032 
22:00	26.3	26.3	26.3	83	21.9	0	1	270	0.00	30.026 
22:05	26.3	26.3	26.3	84	22.1	0	0	---	0.00	30.026 
22:10	26.4	26.4	26.4	84	22.2	0	3	270	0.00	30.026 
22:15	26.7	26.7	26.7	84	22.5	0	2	270	0.00	30.017 
22:20	27.0	27.0	27.0	84	22.8	0	1	270	0.00	30.017 
22:25	27.0	27.0	27.0	83	22.5	0	1	270	0.00	30.017 
22:30	27.0	27.0	27.0	83	22.5	0	1	270	0.00	30.016 
22:35	27.0	27.0	27.0	83	22.5	0	1	270	0.00	30.016 
22:40	27.0	27.0	27.0	83	22.5	0	1	270	0.00	30.016 
22:45	26.9	26.9	26.9	83	22.4	0	1	270	0.00	30.015 
22:50	26.9	26.9	26.9	83	22.4	1	2	270	0.00	30.015 
22:55	26.9	26.9	26.9	82	22.2	0	2	270	0.00	30.015 
23:00	26.7	26.7	26.7	83	22.2	0	1	270	0.00	30.010 
23:05	26.6	26.6	26.6	83	22.1	0	2	270	0.00	30.010 
23:10	26.6	26.6	26.6	83	22.1	1	2	270	0.00	30.010 
23:15	26.6	26.6	26.6	83	22.1	1	4	90	0.00	30.004 
23:20	26.6	26.6	26.6	83	22.1	1	3	90	0.00	30.004 
23:25	26.6	26.6	26.6	83	22.1	1	5	90	0.00	30.004 
23:30	26.6	26.6	26.6	83	22.1	1	4	90	0.00	29.997 
23:35	26.4	26.4	26.4	83	22.0	1	3	90	0.00	29.997 
23:40	26.4	26.4	26.4	83	22.0	1	3	90	0.00	29.997 
23:45	26.4	26.4	26.4	83	22.0	1	2	90	0.00	29.998 
23:50	26.3	26.3	26.3	83	21.9	1	2	90	0.00	29.998 
23:55	26.3	26.3	26.3	83	21.9	1	3	90	0.00	29.998 

CoCoRaHS
IN-AL-39
A2 Web Hosting
Creative Commons License
GoDaddy
search engine by freefind advanced

loaded 2018-11-15 18:43:59 • last modified 2010-11-18 10:43:29
Privacy PolicyDisclaimer
• wx.awcolley.com is powered by PmWiki v.2002016 •
• all content (unless otherwise noted) © 2018 A W Colley